Time;durP1;ratioP1;P1;durP2;ratioP2;P2;SDS_P1;SDS_P2;PMS_P1;PMS_P2;Temp;Humidity;BMP_temperature;BMP_pressure;BME280_temperature;BME280_humidity;BME280_pressure;Samples;Min_cycle;Max_cycle;Signal;HPM_P1;HPM_P2
2021/10/21 00:01:49;;;;;;;3.22;0.88;;;;;;;;;;5037859;28;20026;-41
2021/10/21 00:04:14;;;;;;;18.15;0.70;;;;;;;;;;5036009;28;20752;-41
2021/10/21 00:06:39;;;;;;;0.75;0.30;;;;;;;;;;5034654;28;20029;-41
2021/10/21 00:09:05;;;;;;;1.10;0.73;;;;;;;;;;5037071;28;20037;-42
2021/10/21 00:11:31;;;;;;;1.13;0.55;;;;;;;;;;5040342;28;20524;-42
2021/10/21 00:13:57;;;;;;;1.00;0.52;;;;;;;;;;5035292;28;20136;-45
2021/10/21 00:16:22;;;;;;;0.40;0.25;;;;;;;;;;5035138;28;20468;-47
2021/10/21 00:18:49;;;;;;;2.05;0.50;;;;;;;;;;5034917;28;20032;-49
2021/10/21 00:21:15;;;;;;;2.38;0.63;;;;;;;;;;5034167;28;20021;-42
2021/10/21 00:23:40;;;;;;;1.05;0.52;;;;;;;;;;5036552;28;20150;-43
2021/10/21 00:26:07;;;;;;;0.30;0.20;;;;;;;;;;5035025;28;20556;-43
2021/10/21 00:28:33;;;;;;;0.68;0.43;;;;;;;;;;5034063;28;20021;-41
2021/10/21 00:30:58;;;;;;;0.75;0.50;;;;;;;;;;5038429;28;20373;-44
2021/10/21 00:33:23;;;;;;;1.02;0.50;;;;;;;;;;5033706;28;20017;-43
2021/10/21 00:35:48;;;;;;;1.70;0.70;;;;;;;;;;5033146;28;20025;-43
2021/10/21 00:38:14;;;;;;;0.75;0.40;;;;;;;;;;5036974;28;20116;-42
2021/10/21 00:40:39;;;;;;;3.22;0.40;;;;;;;;;;5035154;28;20036;-47
2021/10/21 00:43:04;;;;;;;1.73;0.80;;;;;;;;;;5038253;28;20397;-45
2021/10/21 00:45:30;;;;;;;1.10;0.50;;;;;;;;;;5033804;28;20056;-44
2021/10/21 00:47:56;;;;;;;1.00;0.70;;;;;;;;;;5034210;28;20028;-46
2021/10/21 00:50:21;;;;;;;1.08;0.63;;;;;;;;;;5032514;28;20481;-46
2021/10/21 00:52:47;;;;;;;2.08;0.88;;;;;;;;;;5037060;28;20029;-43
2021/10/21 00:55:14;;;;;;;0.77;0.50;;;;;;;;;;5033673;28;20080;-45
2021/10/21 00:57:39;;;;;;;1.08;0.63;;;;;;;;;;5032809;28;20079;-42
2021/10/21 01:00:05;;;;;;;1.42;0.98;;;;;;;;;;5035620;28;20026;-41
2021/10/21 01:02:30;;;;;;;6.10;0.90;;;;;;;;;;5033242;28;20468;-42
2021/10/21 01:04:56;;;;;;;0.98;0.60;;;;;;;;;;5030913;28;20036;-44
2021/10/21 01:07:21;;;;;;;4.72;1.27;;;;;;;;;;5037223;28;20531;-45
2021/10/21 01:09:47;;;;;;;1.77;0.70;;;;;;;;;;5032950;28;20052;-43
2021/10/21 01:12:13;;;;;;;2.30;0.93;;;;;;;;;;5036137;28;20029;-42
2021/10/21 01:14:39;;;;;;;5.00;0.68;;;;;;;;;;5033142;28;20120;-43
2021/10/21 01:17:04;;;;;;;0.55;0.45;;;;;;;;;;5036022;28;20471;-39
2021/10/21 01:19:29;;;;;;;4.28;1.50;;;;;;;;;;5033646;28;20027;-40
2021/10/21 01:21:55;;;;;;;0.55;0.50;;;;;;;;;;5033281;28;20456;-41
2021/10/21 01:24:21;;;;;;;1.30;0.75;;;;;;;;;;5031440;28;20127;-40
2021/10/21 01:26:47;;;;;;;1.40;0.82;;;;;;;;;;5034578;28;20029;-39
2021/10/21 01:29:15;;;;;;;1.50;0.60;;;;;;;;;;5037427;28;20105;-39
2021/10/21 01:31:40;;;;;;;5.45;1.02;;;;;;;;;;5037833;28;20163;-42
2021/10/21 01:34:07;;;;;;;1.85;1.17;;;;;;;;;;5033585;28;20021;-43
2021/10/21 01:36:32;;;;;;;1.92;1.23;;;;;;;;;;5035898;28;20025;-43
2021/10/21 01:38:57;;;;;;;1.50;0.80;;;;;;;;;;5037449;28;20131;-41
2021/10/21 01:41:23;;;;;;;4.35;1.60;;;;;;;;;;5036167;28;20424;-44
2021/10/21 01:43:48;;;;;;;6.25;1.67;;;;;;;;;;5041047;28;20032;-43
2021/10/21 01:46:13;;;;;;;1.92;1.17;;;;;;;;;;5036848;28;20039;-43
2021/10/21 01:48:39;;;;;;;4.82;1.45;;;;;;;;;;5039260;28;20492;-44
2021/10/21 01:51:04;;;;;;;2.35;1.63;;;;;;;;;;5030946;28;20404;-46
2021/10/21 01:53:30;;;;;;;4.20;1.63;;;;;;;;;;5033863;28;20088;-44
2021/10/21 01:55:55;;;;;;;3.22;1.88;;;;;;;;;;5038042;28;20664;-47
2021/10/21 01:58:20;;;;;;;3.80;1.13;;;;;;;;;;5035741;28;20461;-44
2021/10/21 02:00:46;;;;;;;5.20;1.42;;;;;;;;;;5036015;28;20062;-44
2021/10/21 02:03:11;;;;;;;2.20;1.20;;;;;;;;;;5041417;28;20027;-45
2021/10/21 02:05:36;;;;;;;2.63;1.60;;;;;;;;;;5035219;28;20390;-42
2021/10/21 02:08:02;;;;;;;3.97;2.15;;;;;;;;;;5032712;28;20076;-40
2021/10/21 02:10:27;;;;;;;2.97;1.90;;;;;;;;;;5038156;28;20033;-47
2021/10/21 02:12:52;;;;;;;2.33;0.98;;;;;;;;;;5037993;28;20020;-41
2021/10/21 02:15:18;;;;;;;2.80;1.83;;;;;;;;;;5038499;28;20025;-47
2021/10/21 02:17:43;;;;;;;6.00;1.20;;;;;;;;;;5035626;28;20025;-44
2021/10/21 02:20:10;;;;;;;1.92;1.25;;;;;;;;;;5039382;28;20021;-48
2021/10/21 02:22:36;;;;;;;9.73;1.65;;;;;;;;;;5037925;28;20531;-42
2021/10/21 02:25:01;;;;;;;5.65;1.90;;;;;;;;;;5035266;28;20029;-42
2021/10/21 02:27:26;;;;;;;3.25;2.08;;;;;;;;;;5038317;28;20090;-40
2021/10/21 02:29:51;;;;;;;10.82;3.40;;;;;;;;;;5034185;28;20088;-41
2021/10/21 02:32:17;;;;;;;6.35;3.13;;;;;;;;;;5037147;28;20365;-43
2021/10/21 02:34:42;;;;;;;4.38;2.40;;;;;;;;;;5034957;28;20573;-41
2021/10/21 02:37:07;;;;;;;3.08;2.00;;;;;;;;;;5033427;28;20021;-46
2021/10/21 02:39:33;;;;;;;4.05;1.80;;;;;;;;;;5034040;28;20032;-42
2021/10/21 02:41:58;;;;;;;3.47;1.90;;;;;;;;;;5036436;28;20488;-43
2021/10/21 02:44:23;;;;;;;2.45;1.50;;;;;;;;;;5033684;28;20532;-43
2021/10/21 02:46:49;;;;;;;7.00;1.55;;;;;;;;;;5039195;28;20028;-43
2021/10/21 02:49:15;;;;;;;1.35;1.10;;;;;;;;;;5035270;28;20060;-43
2021/10/21 02:51:41;;;;;;;2.10;1.70;;;;;;;;;;5036294;28;20031;-45
2021/10/21 02:54:06;;;;;;;3.08;1.85;;;;;;;;;;5032750;28;20465;-43
2021/10/21 02:56:31;;;;;;;3.65;1.80;;;;;;;;;;5034513;28;20018;-41
2021/10/21 02:58:57;;;;;;;2.83;1.60;;;;;;;;;;5035102;28;20541;-44
2021/10/21 03:01:22;;;;;;;2.90;1.38;;;;;;;;;;5035299;28;20105;-43
2021/10/21 03:03:47;;;;;;;1.95;1.35;;;;;;;;;;5035059;28;20029;-43
2021/10/21 03:06:13;;;;;;;4.50;2.42;;;;;;;;;;5036717;28;20025;-46
2021/10/21 03:08:38;;;;;;;2.78;2.03;;;;;;;;;;5041854;28;20009;-42
2021/10/21 03:11:04;;;;;;;4.90;2.75;;;;;;;;;;5039892;28;20068;-46
2021/10/21 03:13:30;;;;;;;3.30;2.25;;;;;;;;;;5041339;28;20025;-44
2021/10/21 03:15:55;;;;;;;3.92;2.92;;;;;;;;;;5038465;28;20116;-47
2021/10/21 03:18:20;;;;;;;4.88;2.72;;;;;;;;;;5036872;28;20070;-44
2021/10/21 03:20:45;;;;;;;6.50;2.25;;;;;;;;;;5038580;28;20029;-43
2021/10/21 03:23:11;;;;;;;7.20;4.00;;;;;;;;;;5040293;28;20448;-43
2021/10/21 03:25:37;;;;;;;3.33;1.85;;;;;;;;;;5037130;28;20781;-45
2021/10/21 03:28:02;;;;;;;2.33;1.50;;;;;;;;;;5041548;28;20116;-46
2021/10/21 03:30:28;;;;;;;4.30;3.03;;;;;;;;;;5039633;28;20023;-44
2021/10/21 03:32:53;;;;;;;7.18;4.05;;;;;;;;;;5041815;28;20388;-46
2021/10/21 03:35:18;;;;;;;8.82;3.63;;;;;;;;;;5039549;28;20029;-46
2021/10/21 03:37:44;;;;;;;2.67;2.30;;;;;;;;;;5036463;28;20068;-46
2021/10/21 03:40:10;;;;;;;4.72;3.28;;;;;;;;;;5038956;28;20029;-44
2021/10/21 03:42:35;;;;;;;2.70;2.15;;;;;;;;;;5042487;28;20103;-45
2021/10/21 03:45:01;;;;;;;5.18;2.67;;;;;;;;;;5035815;28;20187;-42
2021/10/21 03:47:27;;;;;;;4.18;3.25;;;;;;;;;;5039005;28;20021;-41
2021/10/21 03:49:52;;;;;;;6.53;3.10;;;;;;;;;;5040829;28;20017;-44
2021/10/21 03:52:19;;;;;;;4.45;3.05;;;;;;;;;;5039277;28;20737;-41
2021/10/21 03:54:47;;;;;;;3.47;2.50;;;;;;;;;;5036199;28;20045;-42
2021/10/21 03:57:13;;;;;;;6.93;2.35;;;;;;;;;;5036770;28;20017;-44
2021/10/21 03:59:38;;;;;;;4.30;2.88;;;;;;;;;;5042964;28;20032;-40
2021/10/21 04:02:04;;;;;;;3.58;2.47;;;;;;;;;;5039929;28;20035;-42
2021/10/21 04:04:29;;;;;;;7.53;2.83;;;;;;;;;;5037577;28;20084;-43
2021/10/21 04:06:54;;;;;;;2.95;1.70;;;;;;;;;;5040119;28;20017;-42
2021/10/21 04:09:20;;;;;;;11.00;2.83;;;;;;;;;;5039285;28;20017;-41
2021/10/21 04:11:45;;;;;;;9.27;1.65;;;;;;;;;;5042787;28;20088;-40
2021/10/21 04:14:11;;;;;;;4.43;1.88;;;;;;;;;;5041484;28;20898;-44
2021/10/21 04:16:36;;;;;;;6.85;2.10;;;;;;;;;;5037274;28;20067;-43
2021/10/21 04:19:01;;;;;;;2.50;1.63;;;;;;;;;;5040048;28;20112;-42
2021/10/21 04:21:27;;;;;;;10.70;2.05;;;;;;;;;;5036091;28;20991;-44
2021/10/21 04:23:53;;;;;;;2.17;1.42;;;;;;;;;;5041732;28;20566;-43
2021/10/21 04:26:19;;;;;;;2.17;1.23;;;;;;;;;;5037811;28;20021;-41
2021/10/21 04:28:44;;;;;;;2.60;1.38;;;;;;;;;;5039230;28;20048;-44
2021/10/21 04:31:10;;;;;;;2.88;2.08;;;;;;;;;;5039412;28;20025;-43
2021/10/21 04:33:35;;;;;;;2.95;1.90;;;;;;;;;;5039384;28;20028;-42
2021/10/21 04:36:00;;;;;;;6.22;2.03;;;;;;;;;;5037182;28;20028;-47
2021/10/21 04:38:26;;;;;;;7.93;2.25;;;;;;;;;;5037716;28;20822;-42
2021/10/21 04:40:51;;;;;;;7.32;2.25;;;;;;;;;;5035992;28;20109;-43
2021/10/21 04:43:17;;;;;;;5.22;2.03;;;;;;;;;;5037683;28;20481;-45
2021/10/21 04:45:43;;;;;;;2.35;1.85;;;;;;;;;;5036918;28;20053;-45
2021/10/21 04:48:08;;;;;;;4.53;3.85;;;;;;;;;;5037877;28;20021;-42
2021/10/21 04:50:34;;;;;;;10.70;3.40;;;;;;;;;;5034207;28;20017;-44
2021/10/21 04:52:59;;;;;;;2.95;1.63;;;;;;;;;;5036842;28;20149;-42
2021/10/21 04:55:25;;;;;;;14.45;2.65;;;;;;;;;;5040541;28;20117;-45
2021/10/21 04:57:50;;;;;;;3.47;2.22;;;;;;;;;;5037684;28;20545;-47
2021/10/21 05:00:16;;;;;;;2.25;1.67;;;;;;;;;;5037466;28;20116;-41
2021/10/21 05:02:42;;;;;;;6.55;2.67;;;;;;;;;;5036918;28;20481;-42
2021/10/21 05:05:07;;;;;;;2.08;1.42;;;;;;;;;;5038922;28;20078;-44
2021/10/21 05:07:32;;;;;;;4.47;1.80;;;;;;;;;;5040383;28;20029;-43
2021/10/21 05:09:58;;;;;;;6.57;2.03;;;;;;;;;;5036434;28;20025;-42
2021/10/21 05:12:23;;;;;;;5.32;4.53;;;;;;;;;;5039367;28;20131;-42
2021/10/21 05:14:52;;;;;;;3.40;2.75;;;;;;;;;;5038789;28;20107;-47
2021/10/21 05:17:18;;;;;;;7.75;2.13;;;;;;;;;;5034403;28;20060;-41
2021/10/21 05:19:43;;;;;;;4.60;2.80;;;;;;;;;;5035998;28;20576;-44
2021/10/21 05:22:08;;;;;;;3.30;2.30;;;;;;;;;;5036204;28;20055;-44
2021/10/21 05:24:34;;;;;;;4.07;2.53;;;;;;;;;;5039975;28;20786;-44
2021/10/21 05:26:59;;;;;;;10.38;3.55;;;;;;;;;;5032805;28;20017;-52
2021/10/21 05:29:26;;;;;;;16.27;3.15;;;;;;;;;;5038415;28;20608;-51
2021/10/21 05:31:51;;;;;;;6.30;3.78;;;;;;;;;;5038849;28;20018;-54
2021/10/21 05:34:17;;;;;;;8.63;1.88;;;;;;;;;;5036846;28;20104;-54
2021/10/21 05:36:42;;;;;;;3.40;1.85;;;;;;;;;;5036549;28;20041;-53
2021/10/21 05:39:07;;;;;;;2.78;1.90;;;;;;;;;;5033498;28;20646;-51
2021/10/21 05:41:33;;;;;;;3.35;2.53;;;;;;;;;;5036911;28;20033;-55
2021/10/21 05:43:58;;;;;;;7.93;3.30;;;;;;;;;;5035322;28;20032;-52
2021/10/21 05:46:24;;;;;;;7.70;3.28;;;;;;;;;;5030239;28;20118;-53
2021/10/21 05:48:49;;;;;;;2.72;2.33;;;;;;;;;;5032298;28;20650;-53
2021/10/21 05:51:14;;;;;;;8.35;3.13;;;;;;;;;;5033954;28;20025;-50
2021/10/21 05:53:40;;;;;;;9.27;5.60;;;;;;;;;;5037053;28;20478;-50
2021/10/21 05:56:05;;;;;;;5.50;2.85;;;;;;;;;;5036996;28;20031;-52
2021/10/21 05:58:31;;;;;;;3.88;2.22;;;;;;;;;;5030823;28;20045;-52
2021/10/21 06:00:56;;;;;;;7.05;3.22;;;;;;;;;;5035859;28;20033;-52
2021/10/21 06:03:22;;;;;;;4.88;3.47;;;;;;;;;;5038232;28;20019;-53
2021/10/21 06:05:47;;;;;;;20.83;3.50;;;;;;;;;;5037693;28;20055;-52
2021/10/21 06:08:12;;;;;;;6.72;4.53;;;;;;;;;;5036223;28;20021;-50
2021/10/21 06:10:37;;;;;;;6.30;4.55;;;;;;;;;;5037626;28;20029;-53
2021/10/21 06:13:05;;;;;;;4.30;2.83;;;;;;;;;;5033914;28;20507;-49
2021/10/21 06:15:30;;;;;;;7.22;3.10;;;;;;;;;;5035220;28;20031;-53
2021/10/21 06:17:57;;;;;;;4.82;3.78;;;;;;;;;;5035681;28;20025;-52
2021/10/21 06:20:22;;;;;;;18.13;5.82;;;;;;;;;;5036204;28;20064;-52
2021/10/21 06:22:48;;;;;;;11.07;5.03;;;;;;;;;;5036676;28;20061;-55
2021/10/21 06:25:13;;;;;;;16.85;7.75;;;;;;;;;;5037059;28;20017;-54
2021/10/21 06:27:39;;;;;;;16.92;6.38;;;;;;;;;;5037783;28;20013;-51
2021/10/21 06:30:05;;;;;;;12.05;8.30;;;;;;;;;;5034145;28;20025;-55
2021/10/21 06:32:31;;;;;;;11.55;7.20;;;;;;;;;;5040551;28;20024;-51
2021/10/21 06:34:56;;;;;;;6.50;4.60;;;;;;;;;;5037003;28;20432;-54
2021/10/21 06:37:22;;;;;;;14.10;4.80;;;;;;;;;;5036682;28;20384;-51
2021/10/21 06:39:54;;;;;;;9.40;5.03;;;;;;;;;;5039546;28;20111;-54
2021/10/21 06:42:20;;;;;;;7.25;3.85;;;;;;;;;;5035553;28;20412;-52
2021/10/21 06:44:46;;;;;;;15.98;6.78;;;;;;;;;;5038090;28;20049;-51
2021/10/21 06:47:11;;;;;;;9.50;5.93;;;;;;;;;;5033459;28;20070;-54
2021/10/21 06:49:36;;;;;;;19.63;6.88;;;;;;;;;;5036879;28;20021;-51
2021/10/21 06:52:02;;;;;;;9.07;4.28;;;;;;;;;;5038059;28;20017;-53
2021/10/21 06:54:27;;;;;;;11.57;5.65;;;;;;;;;;5034504;28;20406;-51
2021/10/21 06:56:52;;;;;;;23.30;7.25;;;;;;;;;;5032825;28;20026;-54
2021/10/21 06:59:17;;;;;;;24.35;12.05;;;;;;;;;;5036987;28;20040;-52
2021/10/21 07:01:43;;;;;;;22.92;12.20;;;;;;;;;;5036955;28;20094;-53
2021/10/21 07:04:08;;;;;;;37.88;17.35;;;;;;;;;;5033505;28;20051;-54
2021/10/21 07:06:34;;;;;;;24.67;18.35;;;;;;;;;;5034075;28;20126;-59
2021/10/21 07:08:59;;;;;;;23.63;17.33;;;;;;;;;;5032746;28;20056;-52
2021/10/21 07:11:24;;;;;;;37.67;17.50;;;;;;;;;;5038131;28;20060;-54
2021/10/21 07:13:50;;;;;;;58.55;18.13;;;;;;;;;;5035252;28;20542;-55
2021/10/21 07:16:15;;;;;;;31.23;20.27;;;;;;;;;;5033328;28;20036;-51
2021/10/21 07:18:41;;;;;;;29.00;18.92;;;;;;;;;;5033639;28;20059;-50
2021/10/21 07:21:08;;;;;;;40.35;16.83;;;;;;;;;;5037543;28;20025;-53
2021/10/21 07:23:33;;;;;;;35.33;20.95;;;;;;;;;;5033491;28;20175;-49
2021/10/21 07:25:58;;;;;;;29.92;23.27;;;;;;;;;;5034535;28;20524;-49
2021/10/21 07:28:24;;;;;;;31.75;21.65;;;;;;;;;;5035207;28;20623;-53
2021/10/21 07:30:56;;;;;;;60.75;48.28;;;;;;;;;;5036546;28;20024;-49
2021/10/21 07:33:21;;;;;;;58.85;52.92;;;;;;;;;;5031382;28;20025;-52
2021/10/21 07:35:47;;;;;;;75.72;54.97;;;;;;;;;;5034732;28;20076;-47
2021/10/21 07:38:12;;;;;;;67.03;55.92;;;;;;;;;;5033298;28;20025;-46
2021/10/21 07:40:37;;;;;;;76.15;46.25;;;;;;;;;;5035844;28;20108;-50
2021/10/21 07:43:03;;;;;;;57.78;36.97;;;;;;;;;;5033893;28;20035;-49
2021/10/21 07:45:30;;;;;;;58.50;34.80;;;;;;;;;;5034972;28;20638;-52
2021/10/21 07:47:55;;;;;;;42.72;36.63;;;;;;;;;;5035308;28;20025;-52
2021/10/21 07:50:21;;;;;;;42.70;32.67;;;;;;;;;;5033409;28;20559;-53
2021/10/21 07:52:46;;;;;;;41.08;31.02;;;;;;;;;;5036728;28;20872;-50
2021/10/21 07:55:13;;;;;;;58.30;39.40;;;;;;;;;;5035000;28;20032;-50
2021/10/21 07:57:38;;;;;;;64.38;57.47;;;;;;;;;;5039372;28;20045;-52
2021/10/21 08:00:05;;;;;;;67.53;49.58;;;;;;;;;;5034260;28;20021;-52
2021/10/21 08:02:30;;;;;;;67.47;47.97;;;;;;;;;;5038310;28;20024;-48
2021/10/21 08:04:56;;;;;;;62.58;45.90;;;;;;;;;;5038104;28;20432;-52
2021/10/21 08:07:21;;;;;;;58.15;44.97;;;;;;;;;;5035945;28;20487;-53
2021/10/21 08:09:47;;;;;;;66.78;47.03;;;;;;;;;;5035978;28;20081;-55
2021/10/21 08:12:12;;;;;;;87.05;52.88;;;;;;;;;;5037078;28;20025;-53
2021/10/21 08:14:37;;;;;;;68.93;56.03;;;;;;;;;;5035155;28;20025;-51
2021/10/21 08:17:03;;;;;;;74.30;59.70;;;;;;;;;;5040605;28;20028;-54
2021/10/21 08:19:29;;;;;;;103.40;66.68;;;;;;;;;;5035149;28;20484;-54
2021/10/21 08:21:55;;;;;;;101.22;71.65;;;;;;;;;;5035546;28;20021;-54
2021/10/21 08:24:21;;;;;;;88.85;62.00;;;;;;;;;;5036193;28;20114;-53
2021/10/21 08:26:48;;;;;;;76.90;65.53;;;;;;;;;;5037593;28;20270;-53
2021/10/21 08:29:14;;;;;;;97.20;72.47;;;;;;;;;;5035709;28;20025;-50
2021/10/21 08:31:39;;;;;;;89.53;66.95;;;;;;;;;;5035799;28;20035;-53
2021/10/21 08:34:04;;;;;;;104.25;72.90;;;;;;;;;;5037574;28;20430;-53
2021/10/21 08:36:30;;;;;;;120.38;79.22;;;;;;;;;;5036297;28;20439;-52
2021/10/21 08:38:55;;;;;;;91.22;66.53;;;;;;;;;;5036261;28;20072;-53
2021/10/21 08:41:21;;;;;;;70.80;58.95;;;;;;;;;;5035743;28;20021;-53
2021/10/21 08:43:47;;;;;;;74.07;54.05;;;;;;;;;;5033975;28;20025;-52
2021/10/21 08:46:14;;;;;;;64.07;52.30;;;;;;;;;;5030388;28;20052;-52
2021/10/21 08:48:41;;;;;;;53.75;43.30;;;;;;;;;;5036312;28;20032;-51
2021/10/21 08:51:07;;;;;;;74.88;57.83;;;;;;;;;;5036705;28;20480;-53
2021/10/21 08:53:33;;;;;;;106.68;74.50;;;;;;;;;;5034748;28;20071;-53
2021/10/21 08:55:58;;;;;;;92.97;74.00;;;;;;;;;;5032347;28;20043;-49
2021/10/21 08:58:26;;;;;;;109.72;88.30;;;;;;;;;;5037588;28;20070;-52
2021/10/21 09:01:06;;;;;;;124.97;102.28;;;;;;;;;;5031663;28;20087;-49
2021/10/21 09:04:02;;;;;;;117.78;96.70;;;;;;;;;;5032791;28;20033;-49
2021/10/21 09:09:20;;;;;;;127.55;114.10;;;;;;;;;;5034842;28;20036;-50
2021/10/21 09:12:01;;;;;;;124.18;96.38;;;;;;;;;;5035192;28;20098;-50
2021/10/21 09:14:30;;;;;;;97.30;71.95;;;;;;;;;;5035459;28;20103;-48
2021/10/21 09:16:59;;;;;;;76.72;63.35;;;;;;;;;;5035405;28;20025;-52
2021/10/21 09:19:28;;;;;;;49.42;32.60;;;;;;;;;;5033180;28;20079;-55
2021/10/21 09:21:53;;;;;;;33.80;30.20;;;;;;;;;;5033906;28;20059;-52
2021/10/21 09:24:26;;;;;;;37.20;27.90;;;;;;;;;;5031509;28;20037;-52
2021/10/21 09:27:09;;;;;;;30.52;24.13;;;;;;;;;;5033668;28;20059;-48
2021/10/21 09:29:39;;;;;;;26.20;16.45;;;;;;;;;;5034719;28;20021;-50
2021/10/21 09:32:04;;;;;;;20.98;12.52;;;;;;;;;;5034402;28;20067;-51
2021/10/21 09:34:29;;;;;;;18.38;16.38;;;;;;;;;;5036120;28;20029;-51
2021/10/21 09:37:02;;;;;;;22.67;15.35;;;;;;;;;;5032040;28;20124;-51
2021/10/21 09:39:39;;;;;;;11.20;9.15;;;;;;;;;;5033209;28;20021;-51
2021/10/21 09:42:06;;;;;;;14.48;8.57;;;;;;;;;;5036438;28;20032;-49
2021/10/21 09:44:31;;;;;;;12.13;8.95;;;;;;;;;;5033434;28;20104;-49
2021/10/21 09:46:57;;;;;;;8.50;7.20;;;;;;;;;;5034058;28;20060;-51
2021/10/21 09:49:29;;;;;;;17.52;9.05;;;;;;;;;;5031409;28;20072;-51
2021/10/21 09:51:55;;;;;;;13.35;7.65;;;;;;;;;;5032272;28;20021;-47
2021/10/21 09:54:21;;;;;;;63.30;45.10;;;;;;;;;;5035702;28;20037;-53
2021/10/21 09:56:57;;;;;;;67.00;40.75;;;;;;;;;;5033254;28;20021;-53
2021/10/21 09:59:26;;;;;;;113.80;66.97;;;;;;;;;;5036049;28;20042;-44
2021/10/21 10:01:53;;;;;;;69.35;42.80;;;;;;;;;;5036488;28;20021;-49
2021/10/21 10:04:19;;;;;;;27.00;17.63;;;;;;;;;;5035594;28;20295;-45
2021/10/21 10:06:44;;;;;;;37.42;18.52;;;;;;;;;;5034112;28;20473;-46
2021/10/21 10:09:09;;;;;;;25.92;21.48;;;;;;;;;;5034353;28;20017;-48
2021/10/21 10:11:37;;;;;;;25.08;21.10;;;;;;;;;;5031260;28;20029;-44
2021/10/21 10:14:03;;;;;;;19.52;13.98;;;;;;;;;;5037771;28;20090;-47
2021/10/21 10:16:28;;;;;;;11.13;9.98;;;;;;;;;;5033399;28;20552;-47
2021/10/21 10:18:54;;;;;;;8.40;6.55;;;;;;;;;;5033664;28;20013;-43
2021/10/21 10:21:20;;;;;;;8.07;6.03;;;;;;;;;;5037653;28;20098;-46
2021/10/21 10:23:53;;;;;;;7.78;5.38;;;;;;;;;;5036452;28;20020;-45
2021/10/21 10:26:48;;;;;;;8.70;6.50;;;;;;;;;;5031483;28;20086;-47
2021/10/21 10:29:15;;;;;;;8.23;4.43;;;;;;;;;;5028216;28;20051;-45
2021/10/21 10:31:40;;;;;;;6.50;3.72;;;;;;;;;;5037402;28;20028;-44
2021/10/21 10:34:29;;;;;;;9.73;5.07;;;;;;;;;;5035927;28;20783;-43
2021/10/21 10:36:54;;;;;;;8.02;4.00;;;;;;;;;;5034306;28;20176;-47
2021/10/21 10:39:41;;;;;;;4.90;3.78;;;;;;;;;;5034857;28;20544;-49
2021/10/21 10:42:06;;;;;;;8.35;5.15;;;;;;;;;;5031944;28;20021;-45
2021/10/21 10:44:52;;;;;;;5.30;2.72;;;;;;;;;;5031168;28;20041;-50
2021/10/21 10:47:37;;;;;;;11.38;3.00;;;;;;;;;;5030178;28;20032;-51
2021/10/21 10:50:03;;;;;;;11.45;8.07;;;;;;;;;;5034603;28;20584;-48
2021/10/21 10:52:43;;;;;;;10.65;4.18;;;;;;;;;;5031880;28;20017;-47
2021/10/21 10:55:14;;;;;;;10.30;3.78;;;;;;;;;;5033395;28;20073;-49
2021/10/21 10:57:42;;;;;;;7.88;2.78;;;;;;;;;;5032467;28;20029;-50
2021/10/21 11:00:28;;;;;;;3.63;2.85;;;;;;;;;;5035288;28;20481;-49
2021/10/21 11:02:59;;;;;;;11.30;2.83;;;;;;;;;;5033196;28;20044;-52
2021/10/21 11:05:48;;;;;;;13.60;3.78;;;;;;;;;;5035612;28;20032;-52
2021/10/21 11:08:14;;;;;;;7.20;4.97;;;;;;;;;;5031417;28;20441;-49
2021/10/21 11:10:40;;;;;;;10.48;7.10;;;;;;;;;;5035403;28;20116;-47
2021/10/21 11:13:31;;;;;;;8.35;4.53;;;;;;;;;;5035789;28;20061;-45
2021/10/21 11:15:57;;;;;;;6.60;3.20;;;;;;;;;;5030490;28;20052;-49
2021/10/21 11:18:24;;;;;;;10.43;3.83;;;;;;;;;;5037404;28;20071;-44
2021/10/21 11:20:52;;;;;;;6.03;3.28;;;;;;;;;;5034354;28;20041;-45
2021/10/21 11:23:27;;;;;;;6.32;3.28;;;;;;;;;;5036462;28;20112;-50
2021/10/21 11:25:56;;;;;;;4.78;4.28;;;;;;;;;;5036253;28;20125;-44
2021/10/21 11:28:28;;;;;;;9.35;3.75;;;;;;;;;;5037868;28;20056;-50
2021/10/21 11:30:53;;;;;;;3.63;2.08;;;;;;;;;;5034158;28;20480;-50
2021/10/21 11:33:19;;;;;;;9.90;8.88;;;;;;;;;;5037671;28;20060;-44
2021/10/21 11:35:44;;;;;;;4.30;3.22;;;;;;;;;;5041118;28;20082;-50
2021/10/21 11:38:12;;;;;;;11.95;4.13;;;;;;;;;;5035580;28;20033;-47
2021/10/21 11:40:39;;;;;;;4.57;3.35;;;;;;;;;;5038769;28;20021;-51
2021/10/21 11:43:04;;;;;;;6.50;3.03;;;;;;;;;;5032996;28;20087;-47
2021/10/21 11:45:32;;;;;;;24.73;4.75;;;;;;;;;;5035827;28;20441;-49
2021/10/21 11:47:59;;;;;;;4.40;3.60;;;;;;;;;;5039011;28;20085;-47
2021/10/21 11:50:41;;;;;;;8.63;2.78;;;;;;;;;;5039497;28;20168;-48
2021/10/21 11:53:07;;;;;;;6.60;4.05;;;;;;;;;;5035813;28;20104;-52
2021/10/21 11:55:33;;;;;;;5.93;3.95;;;;;;;;;;5038506;28;20053;-50
2021/10/21 11:58:01;;;;;;;6.85;4.97;;;;;;;;;;5037388;28;20028;-50
2021/10/21 12:00:28;;;;;;;15.52;14.32;;;;;;;;;;5037579;28;20020;-50
2021/10/21 12:02:57;;;;;;;5.18;2.88;;;;;;;;;;5038727;28;20037;-50
2021/10/21 12:05:26;;;;;;;6.32;4.30;;;;;;;;;;5034133;28;20605;-49
2021/10/21 12:07:52;;;;;;;3.50;2.75;;;;;;;;;;5034803;28;20021;-48
2021/10/21 12:10:24;;;;;;;6.47;2.85;;;;;;;;;;5040133;28;20361;-51
2021/10/21 12:12:49;;;;;;;4.82;3.90;;;;;;;;;;5033498;28;20107;-50
2021/10/21 12:15:18;;;;;;;5.30;3.45;;;;;;;;;;5038257;28;20017;-45
2021/10/21 12:17:43;;;;;;;7.28;3.38;;;;;;;;;;5040814;28;20021;-51
2021/10/21 12:20:09;;;;;;;3.08;2.58;;;;;;;;;;5035538;28;20043;-50
2021/10/21 12:22:37;;;;;;;7.00;6.25;;;;;;;;;;5039501;28;20483;-49
2021/10/21 12:25:03;;;;;;;11.63;5.85;;;;;;;;;;5035305;28;20017;-50
2021/10/21 12:27:29;;;;;;;7.10;2.90;;;;;;;;;;5039767;28;20017;-48
2021/10/21 12:30:06;;;;;;;5.57;3.85;;;;;;;;;;5039753;28;20018;-50
2021/10/21 12:32:31;;;;;;;8.40;4.25;;;;;;;;;;5040003;28;20092;-53
2021/10/21 12:35:06;;;;;;;4.72;4.20;;;;;;;;;;5036958;28;20025;-53
2021/10/21 12:37:38;;;;;;;7.45;3.50;;;;;;;;;;5035032;28;20043;-53
2021/10/21 12:40:14;;;;;;;7.90;3.10;;;;;;;;;;5037034;28;20460;-54
2021/10/21 12:42:39;;;;;;;6.20;3.70;;;;;;;;;;5034062;28;20656;-49
2021/10/21 12:45:05;;;;;;;3.42;2.75;;;;;;;;;;5036288;28;20136;-53
2021/10/21 12:47:32;;;;;;;13.50;4.68;;;;;;;;;;5036896;28;20020;-52
2021/10/21 12:49:59;;;;;;;7.00;2.83;;;;;;;;;;5037159;28;20024;-53
2021/10/21 12:52:29;;;;;;;5.75;3.20;;;;;;;;;;5037388;28;20017;-55
2021/10/21 12:55:15;;;;;;;7.78;4.22;;;;;;;;;;5036337;28;20492;-52
2021/10/21 12:57:47;;;;;;;7.57;5.50;;;;;;;;;;5035325;28;20116;-54
2021/10/21 13:00:13;;;;;;;10.73;6.55;;;;;;;;;;5034852;28;20021;-48
2021/10/21 13:02:38;;;;;;;8.50;7.32;;;;;;;;;;5038266;28;20078;-52
2021/10/21 13:05:04;;;;;;;9.27;6.18;;;;;;;;;;5038238;28;20037;-52
2021/10/21 13:07:29;;;;;;;10.30;5.97;;;;;;;;;;5037341;28;20452;-54
2021/10/21 13:09:55;;;;;;;9.52;4.53;;;;;;;;;;5037494;28;20018;-52
2021/10/21 13:12:21;;;;;;;14.40;5.25;;;;;;;;;;5032716;28;20427;-50
2021/10/21 13:14:47;;;;;;;4.95;3.63;;;;;;;;;;5036538;28;20124;-47
2021/10/21 13:17:12;;;;;;;10.75;3.97;;;;;;;;;;5036668;28;20017;-47
2021/10/21 13:19:38;;;;;;;5.70;3.40;;;;;;;;;;5037539;28;20171;-49
2021/10/21 13:22:04;;;;;;;22.00;4.72;;;;;;;;;;5035394;28;20111;-49
2021/10/21 13:24:29;;;;;;;10.27;3.53;;;;;;;;;;5037891;28;20020;-49
2021/10/21 13:26:55;;;;;;;3.70;3.13;;;;;;;;;;5038797;28;20335;-49
2021/10/21 13:29:22;;;;;;;4.97;2.05;;;;;;;;;;5038501;28;20400;-49
2021/10/21 13:31:47;;;;;;;7.65;4.20;;;;;;;;;;5042095;28;20039;-48
2021/10/21 13:34:13;;;;;;;14.85;6.30;;;;;;;;;;5037323;28;20029;-48
2021/10/21 13:36:38;;;;;;;9.20;6.03;;;;;;;;;;5035570;28;20041;-48
2021/10/21 13:39:04;;;;;;;5.53;3.22;;;;;;;;;;5037305;28;20024;-50
2021/10/21 13:41:29;;;;;;;5.65;4.15;;;;;;;;;;5038256;28;20021;-51
2021/10/21 13:43:56;;;;;;;7.45;2.47;;;;;;;;;;5038876;28;20083;-46
2021/10/21 13:46:21;;;;;;;15.05;3.70;;;;;;;;;;5036168;28;20037;-45
2021/10/21 13:48:47;;;;;;;4.40;2.63;;;;;;;;;;5037882;28;20692;-48
2021/10/21 13:51:12;;;;;;;5.10;4.05;;;;;;;;;;5033247;28;20024;-49
2021/10/21 13:53:37;;;;;;;3.53;2.85;;;;;;;;;;5036538;28;20024;-47
2021/10/21 13:56:03;;;;;;;9.30;4.47;;;;;;;;;;5032166;28;20073;-48
2021/10/21 13:58:28;;;;;;;5.20;3.15;;;;;;;;;;5032984;28;20039;-47
2021/10/21 14:00:54;;;;;;;7.43;3.38;;;;;;;;;;5035181;28;20532;-52
2021/10/21 14:03:20;;;;;;;6.57;2.63;;;;;;;;;;5034376;28;20021;-50
2021/10/21 14:05:46;;;;;;;9.10;2.78;;;;;;;;;;5036642;28;20037;-47
2021/10/21 14:08:11;;;;;;;2.25;1.88;;;;;;;;;;5037677;28;20032;-46
2021/10/21 14:10:38;;;;;;;5.05;3.05;;;;;;;;;;5035631;28;20025;-49
2021/10/21 14:13:03;;;;;;;5.30;2.25;;;;;;;;;;5038107;28;20039;-50
2021/10/21 14:15:29;;;;;;;6.97;3.25;;;;;;;;;;5034874;28;20614;-47
2021/10/21 14:17:54;;;;;;;4.20;3.13;;;;;;;;;;5034523;28;20029;-52
2021/10/21 14:20:20;;;;;;;5.40;3.13;;;;;;;;;;5034004;28;20548;-47
2021/10/21 14:22:45;;;;;;;7.32;3.85;;;;;;;;;;5037815;28;20079;-48
2021/10/21 14:25:10;;;;;;;5.05;2.97;;;;;;;;;;5034112;28;20469;-46
2021/10/21 14:27:36;;;;;;;8.75;2.40;;;;;;;;;;5035671;28;20715;-47
2021/10/21 14:30:02;;;;;;;3.90;2.80;;;;;;;;;;5035511;28;20036;-49
2021/10/21 14:32:27;;;;;;;3.78;3.05;;;;;;;;;;5036731;28;20025;-47
2021/10/21 14:34:52;;;;;;;7.40;3.05;;;;;;;;;;5032801;28;20488;-48
2021/10/21 14:37:18;;;;;;;3.85;2.75;;;;;;;;;;5031388;28;20104;-49